sensor_id;sensor_type;location;lat;lon;timestamp;temperature;humidity
13458;DHT22;6801;53.018;11.560;2023-08-06T00:01:58;19.40;62.70
13458;DHT22;6801;53.018;11.560;2023-08-06T00:04:25;19.40;62.80
13458;DHT22;6801;53.018;11.560;2023-08-06T00:06:52;19.40;62.90
13458;DHT22;6801;53.018;11.560;2023-08-06T00:09:19;19.40;63.00
13458;DHT22;6801;53.018;11.560;2023-08-06T00:11:46;19.30;63.10
13458;DHT22;6801;53.018;11.560;2023-08-06T00:14:13;19.30;62.90
13458;DHT22;6801;53.018;11.560;2023-08-06T00:16:43;19.30;63.00
13458;DHT22;6801;53.018;11.560;2023-08-06T00:19:12;19.30;63.00
13458;DHT22;6801;53.018;11.560;2023-08-06T00:21:39;19.30;63.00
13458;DHT22;6801;53.018;11.560;2023-08-06T00:24:06;19.20;63.10
13458;DHT22;6801;53.018;11.560;2023-08-06T00:26:33;19.30;63.10
13458;DHT22;6801;53.018;11.560;2023-08-06T00:29:01;19.30;63.10
13458;DHT22;6801;53.018;11.560;2023-08-06T00:31:28;19.20;63.20
13458;DHT22;6801;53.018;11.560;2023-08-06T00:33:55;19.20;63.30
13458;DHT22;6801;53.018;11.560;2023-08-06T00:36:23;19.20;63.40
13458;DHT22;6801;53.018;11.560;2023-08-06T00:38:50;19.20;63.50
13458;DHT22;6801;53.018;11.560;2023-08-06T00:41:17;19.10;63.60
13458;DHT22;6801;53.018;11.560;2023-08-06T00:43:44;19.10;63.70
13458;DHT22;6801;53.018;11.560;2023-08-06T00:46:12;19.10;63.70
13458;DHT22;6801;53.018;11.560;2023-08-06T00:48:40;19.10;63.80
13458;DHT22;6801;53.018;11.560;2023-08-06T00:51:10;19.00;63.90
13458;DHT22;6801;53.018;11.560;2023-08-06T00:53:39;19.00;64.00
13458;DHT22;6801;53.018;11.560;2023-08-06T00:56:07;19.00;64.00
13458;DHT22;6801;53.018;11.560;2023-08-06T00:58:35;19.00;64.10
13458;DHT22;6801;53.018;11.560;2023-08-06T01:01:03;19.00;64.20
13458;DHT22;6801;53.018;11.560;2023-08-06T01:03:30;19.00;64.40
13458;DHT22;6801;53.018;11.560;2023-08-06T01:05:58;19.00;64.60
13458;DHT22;6801;53.018;11.560;2023-08-06T01:08:33;18.90;64.60
13458;DHT22;6801;53.018;11.560;2023-08-06T01:11:17;18.90;64.80
13458;DHT22;6801;53.018;11.560;2023-08-06T01:13:53;18.90;64.90
13458;DHT22;6801;53.018;11.560;2023-08-06T01:16:24;18.90;65.00
13458;DHT22;6801;53.018;11.560;2023-08-06T01:18:52;18.90;65.10
13458;DHT22;6801;53.018;11.560;2023-08-06T01:21:20;18.90;65.00
13458;DHT22;6801;53.018;11.560;2023-08-06T01:23:48;18.90;65.00
13458;DHT22;6801;53.018;11.560;2023-08-06T01:26:19;18.90;65.20
13458;DHT22;6801;53.018;11.560;2023-08-06T01:28:54;18.80;65.30
13458;DHT22;6801;53.018;11.560;2023-08-06T01:31:27;18.80;65.20
13458;DHT22;6801;53.018;11.560;2023-08-06T01:33:57;18.80;65.30
13458;DHT22;6801;53.018;11.560;2023-08-06T01:36:26;18.80;65.30
13458;DHT22;6801;53.018;11.560;2023-08-06T01:38:54;18.80;65.40
13458;DHT22;6801;53.018;11.560;2023-08-06T01:41:24;18.70;65.50
13458;DHT22;6801;53.018;11.560;2023-08-06T01:43:51;18.70;65.50
13458;DHT22;6801;53.018;11.560;2023-08-06T01:46:17;18.70;65.50
13458;DHT22;6801;53.018;11.560;2023-08-06T01:48:44;18.70;65.70
13458;DHT22;6801;53.018;11.560;2023-08-06T01:51:11;18.70;65.70
13458;DHT22;6801;53.018;11.560;2023-08-06T01:53:40;18.70;65.90
13458;DHT22;6801;53.018;11.560;2023-08-06T01:56:07;18.70;66.00
13458;DHT22;6801;53.018;11.560;2023-08-06T01:58:34;18.60;66.00
13458;DHT22;6801;53.018;11.560;2023-08-06T02:01:02;18.60;65.90
13458;DHT22;6801;53.018;11.560;2023-08-06T02:03:29;18.60;65.90
13458;DHT22;6801;53.018;11.560;2023-08-06T02:05:56;18.60;65.90
13458;DHT22;6801;53.018;11.560;2023-08-06T02:08:23;18.60;65.90
13458;DHT22;6801;53.018;11.560;2023-08-06T02:10:51;18.50;66.00
13458;DHT22;6801;53.018;11.560;2023-08-06T02:13:19;18.50;66.00
13458;DHT22;6801;53.018;11.560;2023-08-06T02:15:46;18.60;66.10
13458;DHT22;6801;53.018;11.560;2023-08-06T02:18:14;18.50;66.10
13458;DHT22;6801;53.018;11.560;2023-08-06T02:20:41;18.50;66.10
13458;DHT22;6801;53.018;11.560;2023-08-06T02:23:08;18.50;66.10
13458;DHT22;6801;53.018;11.560;2023-08-06T02:25:36;18.50;66.10
13458;DHT22;6801;53.018;11.560;2023-08-06T02:28:04;18.50;66.20
13458;DHT22;6801;53.018;11.560;2023-08-06T02:30:31;18.50;66.30
13458;DHT22;6801;53.018;11.560;2023-08-06T02:32:58;18.50;66.60
13458;DHT22;6801;53.018;11.560;2023-08-06T02:35:27;18.50;66.70
13458;DHT22;6801;53.018;11.560;2023-08-06T02:37:54;18.50;66.80
13458;DHT22;6801;53.018;11.560;2023-08-06T02:40:21;18.50;66.90
13458;DHT22;6801;53.018;11.560;2023-08-06T02:42:49;18.40;67.10
13458;DHT22;6801;53.018;11.560;2023-08-06T02:45:17;18.40;67.00
13458;DHT22;6801;53.018;11.560;2023-08-06T02:47:45;18.40;67.00
13458;DHT22;6801;53.018;11.560;2023-08-06T02:50:12;18.40;67.30
13458;DHT22;6801;53.018;11.560;2023-08-06T02:52:39;18.30;67.40
13458;DHT22;6801;53.018;11.560;2023-08-06T02:55:07;18.30;67.70
13458;DHT22;6801;53.018;11.560;2023-08-06T02:57:39;18.30;67.50
13458;DHT22;6801;53.018;11.560;2023-08-06T03:00:07;18.30;67.70
13458;DHT22;6801;53.018;11.560;2023-08-06T03:02:36;18.30;67.80
13458;DHT22;6801;53.018;11.560;2023-08-06T03:05:29;18.30;67.90
13458;DHT22;6801;53.018;11.560;2023-08-06T03:07:56;18.30;68.10
13458;DHT22;6801;53.018;11.560;2023-08-06T03:10:26;18.20;68.20
13458;DHT22;6801;53.018;11.560;2023-08-06T03:12:56;18.20;68.40
13458;DHT22;6801;53.018;11.560;2023-08-06T03:15:23;18.20;68.40
13458;DHT22;6801;53.018;11.560;2023-08-06T03:17:55;18.20;68.60
13458;DHT22;6801;53.018;11.560;2023-08-06T03:20:24;18.10;68.70
13458;DHT22;6801;53.018;11.560;2023-08-06T03:22:52;18.20;68.70
13458;DHT22;6801;53.018;11.560;2023-08-06T03:25:19;18.10;68.70
13458;DHT22;6801;53.018;11.560;2023-08-06T03:27:48;18.10;68.80
13458;DHT22;6801;53.018;11.560;2023-08-06T03:30:17;18.10;68.80
13458;DHT22;6801;53.018;11.560;2023-08-06T03:32:44;18.00;68.70
13458;DHT22;6801;53.018;11.560;2023-08-06T03:35:16;18.00;68.50
13458;DHT22;6801;53.018;11.560;2023-08-06T03:37:43;18.00;68.40
13458;DHT22;6801;53.018;11.560;2023-08-06T03:40:11;18.00;68.50
13458;DHT22;6801;53.018;11.560;2023-08-06T03:42:38;18.00;68.80
13458;DHT22;6801;53.018;11.560;2023-08-06T03:45:06;18.00;69.10
13458;DHT22;6801;53.018;11.560;2023-08-06T03:47:33;18.00;69.20
13458;DHT22;6801;53.018;11.560;2023-08-06T03:50:01;18.00;69.20
13458;DHT22;6801;53.018;11.560;2023-08-06T03:52:30;18.00;69.30
13458;DHT22;6801;53.018;11.560;2023-08-06T03:54:57;18.00;69.40
13458;DHT22;6801;53.018;11.560;2023-08-06T03:57:24;18.00;69.50
13458;DHT22;6801;53.018;11.560;2023-08-06T03:59:51;18.00;69.40
13458;DHT22;6801;53.018;11.560;2023-08-06T04:02:18;18.00;69.50
13458;DHT22;6801;53.018;11.560;2023-08-06T04:04:45;18.00;69.80
13458;DHT22;6801;53.018;11.560;2023-08-06T04:07:12;17.90;69.80
13458;DHT22;6801;53.018;11.560;2023-08-06T04:09:53;17.90;69.80
13458;DHT22;6801;53.018;11.560;2023-08-06T04:12:20;17.90;69.70
13458;DHT22;6801;53.018;11.560;2023-08-06T04:14:47;17.90;69.50
13458;DHT22;6801;53.018;11.560;2023-08-06T04:17:14;17.90;69.50
13458;DHT22;6801;53.018;11.560;2023-08-06T04:19:41;17.80;69.30
13458;DHT22;6801;53.018;11.560;2023-08-06T04:22:08;17.90;69.50
13458;DHT22;6801;53.018;11.560;2023-08-06T04:24:35;17.90;69.80
13458;DHT22;6801;53.018;11.560;2023-08-06T04:27:04;17.90;70.10
13458;DHT22;6801;53.018;11.560;2023-08-06T04:29:32;17.90;70.10
13458;DHT22;6801;53.018;11.560;2023-08-06T04:31:59;17.80;70.30
13458;DHT22;6801;53.018;11.560;2023-08-06T04:34:26;17.80;70.50
13458;DHT22;6801;53.018;11.560;2023-08-06T04:36:53;17.80;70.40
13458;DHT22;6801;53.018;11.560;2023-08-06T04:39:21;17.80;70.50
13458;DHT22;6801;53.018;11.560;2023-08-06T04:41:48;17.80;70.60
13458;DHT22;6801;53.018;11.560;2023-08-06T04:44:16;17.80;70.70
13458;DHT22;6801;53.018;11.560;2023-08-06T04:46:44;17.80;70.70
13458;DHT22;6801;53.018;11.560;2023-08-06T04:49:11;17.70;70.60
13458;DHT22;6801;53.018;11.560;2023-08-06T04:51:38;17.80;70.60
13458;DHT22;6801;53.018;11.560;2023-08-06T04:54:05;17.80;71.00
13458;DHT22;6801;53.018;11.560;2023-08-06T04:56:32;17.80;71.00
13458;DHT22;6801;53.018;11.560;2023-08-06T04:58:59;17.70;71.00
13458;DHT22;6801;53.018;11.560;2023-08-06T05:01:28;17.80;71.20
13458;DHT22;6801;53.018;11.560;2023-08-06T05:03:55;17.70;71.10
13458;DHT22;6801;53.018;11.560;2023-08-06T05:06:22;17.70;71.00
13458;DHT22;6801;53.018;11.560;2023-08-06T05:08:49;17.80;70.90
13458;DHT22;6801;53.018;11.560;2023-08-06T05:11:16;17.80;70.90
13458;DHT22;6801;53.018;11.560;2023-08-06T05:13:43;17.80;71.10
13458;DHT22;6801;53.018;11.560;2023-08-06T05:16:10;17.70;71.40
13458;DHT22;6801;53.018;11.560;2023-08-06T05:18:38;17.70;71.20
13458;DHT22;6801;53.018;11.560;2023-08-06T05:21:06;17.80;71.10
13458;DHT22;6801;53.018;11.560;2023-08-06T05:23:33;17.80;71.00
13458;DHT22;6801;53.018;11.560;2023-08-06T05:26:00;17.80;71.00
13458;DHT22;6801;53.018;11.560;2023-08-06T05:28:28;17.80;70.90
13458;DHT22;6801;53.018;11.560;2023-08-06T05:30:55;17.80;70.70
13458;DHT22;6801;53.018;11.560;2023-08-06T05:33:22;17.80;70.80
13458;DHT22;6801;53.018;11.560;2023-08-06T05:35:50;17.80;70.70
13458;DHT22;6801;53.018;11.560;2023-08-06T05:38:17;17.80;70.70
13458;DHT22;6801;53.018;11.560;2023-08-06T05:40:44;17.80;70.60
13458;DHT22;6801;53.018;11.560;2023-08-06T05:43:12;17.90;70.50
13458;DHT22;6801;53.018;11.560;2023-08-06T05:45:39;17.90;70.40
13458;DHT22;6801;53.018;11.560;2023-08-06T05:48:06;17.90;70.40
13458;DHT22;6801;53.018;11.560;2023-08-06T05:50:33;17.90;70.50
13458;DHT22;6801;53.018;11.560;2023-08-06T05:53:01;17.90;70.60
13458;DHT22;6801;53.018;11.560;2023-08-06T05:55:31;17.90;70.60
13458;DHT22;6801;53.018;11.560;2023-08-06T05:57:59;17.90;70.60
13458;DHT22;6801;53.018;11.560;2023-08-06T06:00:26;18.00;70.60
13458;DHT22;6801;53.018;11.560;2023-08-06T06:02:53;18.00;70.40
13458;DHT22;6801;53.018;11.560;2023-08-06T06:05:21;18.00;70.50
13458;DHT22;6801;53.018;11.560;2023-08-06T06:07:49;18.00;70.60
13458;DHT22;6801;53.018;11.560;2023-08-06T06:10:18;18.00;70.80
13458;DHT22;6801;53.018;11.560;2023-08-06T06:12:45;18.00;71.00
13458;DHT22;6801;53.018;11.560;2023-08-06T06:15:12;18.00;71.40
13458;DHT22;6801;53.018;11.560;2023-08-06T06:17:39;18.00;71.70
13458;DHT22;6801;53.018;11.560;2023-08-06T06:20:07;18.00;72.00
13458;DHT22;6801;53.018;11.560;2023-08-06T06:22:34;18.10;71.80
13458;DHT22;6801;53.018;11.560;2023-08-06T06:25:01;18.10;71.70
13458;DHT22;6801;53.018;11.560;2023-08-06T06:27:30;18.00;71.70
13458;DHT22;6801;53.018;11.560;2023-08-06T06:29:57;18.10;71.70
13458;DHT22;6801;53.018;11.560;2023-08-06T06:32:24;18.10;71.90
13458;DHT22;6801;53.018;11.560;2023-08-06T06:34:51;18.10;72.10
13458;DHT22;6801;53.018;11.560;2023-08-06T06:37:19;18.10;71.90
13458;DHT22;6801;53.018;11.560;2023-08-06T06:39:46;18.20;72.00
13458;DHT22;6801;53.018;11.560;2023-08-06T06:42:13;18.20;72.40
13458;DHT22;6801;53.018;11.560;2023-08-06T06:44:45;18.20;72.60
13458;DHT22;6801;53.018;11.560;2023-08-06T06:47:12;18.20;72.40
13458;DHT22;6801;53.018;11.560;2023-08-06T06:49:39;18.30;72.40
13458;DHT22;6801;53.018;11.560;2023-08-06T06:52:07;18.30;72.40
13458;DHT22;6801;53.018;11.560;2023-08-06T06:54:34;18.30;72.50
13458;DHT22;6801;53.018;11.560;2023-08-06T06:57:01;18.30;72.60
13458;DHT22;6801;53.018;11.560;2023-08-06T06:59:28;18.40;72.60
13458;DHT22;6801;53.018;11.560;2023-08-06T07:01:56;18.40;72.40
13458;DHT22;6801;53.018;11.560;2023-08-06T07:04:23;18.40;72.40
13458;DHT22;6801;53.018;11.560;2023-08-06T07:06:50;18.50;72.40
13458;DHT22;6801;53.018;11.560;2023-08-06T07:09:17;18.50;72.30
13458;DHT22;6801;53.018;11.560;2023-08-06T07:11:44;18.50;72.60
13458;DHT22;6801;53.018;11.560;2023-08-06T07:14:11;18.50;72.50
13458;DHT22;6801;53.018;11.560;2023-08-06T07:16:40;18.50;72.50
13458;DHT22;6801;53.018;11.560;2023-08-06T07:19:08;18.60;72.50
13458;DHT22;6801;53.018;11.560;2023-08-06T07:21:35;18.60;72.40
13458;DHT22;6801;53.018;11.560;2023-08-06T07:24:02;18.70;72.30
13458;DHT22;6801;53.018;11.560;2023-08-06T07:26:30;18.70;72.50
13458;DHT22;6801;53.018;11.560;2023-08-06T07:28:57;18.70;72.50
13458;DHT22;6801;53.018;11.560;2023-08-06T07:31:24;18.80;72.40
13458;DHT22;6801;53.018;11.560;2023-08-06T07:33:51;18.80;72.70
13458;DHT22;6801;53.018;11.560;2023-08-06T07:36:20;18.90;72.50
13458;DHT22;6801;53.018;11.560;2023-08-06T07:38:47;19.00;72.30
13458;DHT22;6801;53.018;11.560;2023-08-06T07:41:17;19.00;72.20
13458;DHT22;6801;53.018;11.560;2023-08-06T07:43:44;19.00;72.10
13458;DHT22;6801;53.018;11.560;2023-08-06T07:46:11;19.00;72.10
13458;DHT22;6801;53.018;11.560;2023-08-06T07:48:39;19.10;72.00
13458;DHT22;6801;53.018;11.560;2023-08-06T07:51:06;19.10;72.00
13458;DHT22;6801;53.018;11.560;2023-08-06T07:53:34;19.20;72.20
13458;DHT22;6801;53.018;11.560;2023-08-06T07:56:01;19.20;72.20
13458;DHT22;6801;53.018;11.560;2023-08-06T07:58:28;19.30;72.20
13458;DHT22;6801;53.018;11.560;2023-08-06T08:00:57;19.30;72.10
13458;DHT22;6801;53.018;11.560;2023-08-06T08:03:24;19.40;72.10
13458;DHT22;6801;53.018;11.560;2023-08-06T08:05:54;19.40;72.10
13458;DHT22;6801;53.018;11.560;2023-08-06T08:08:23;19.50;72.00
13458;DHT22;6801;53.018;11.560;2023-08-06T08:10:51;19.50;72.00
13458;DHT22;6801;53.018;11.560;2023-08-06T08:13:18;19.60;71.90
13458;DHT22;6801;53.018;11.560;2023-08-06T08:15:45;19.60;71.70
13458;DHT22;6801;53.018;11.560;2023-08-06T08:18:12;19.70;71.70
13458;DHT22;6801;53.018;11.560;2023-08-06T08:20:39;19.70;71.70
13458;DHT22;6801;53.018;11.560;2023-08-06T08:23:06;19.70;71.80
13458;DHT22;6801;53.018;11.560;2023-08-06T08:25:33;19.80;71.70
13458;DHT22;6801;53.018;11.560;2023-08-06T08:28:02;19.80;71.70
13458;DHT22;6801;53.018;11.560;2023-08-06T08:30:29;19.90;71.50
13458;DHT22;6801;53.018;11.560;2023-08-06T08:32:56;19.90;71.20
13458;DHT22;6801;53.018;11.560;2023-08-06T08:35:23;20.00;71.10
13458;DHT22;6801;53.018;11.560;2023-08-06T08:37:50;20.00;71.10
13458;DHT22;6801;53.018;11.560;2023-08-06T08:40:18;20.00;71.00
13458;DHT22;6801;53.018;11.560;2023-08-06T08:42:45;20.00;70.90
13458;DHT22;6801;53.018;11.560;2023-08-06T08:45:14;20.10;70.90
13458;DHT22;6801;53.018;11.560;2023-08-06T08:47:42;20.10;71.00
13458;DHT22;6801;53.018;11.560;2023-08-06T08:50:10;20.10;70.90
13458;DHT22;6801;53.018;11.560;2023-08-06T08:52:39;20.20;70.60
13458;DHT22;6801;53.018;11.560;2023-08-06T08:55:08;20.20;70.70
13458;DHT22;6801;53.018;11.560;2023-08-06T08:57:35;20.30;70.50
13458;DHT22;6801;53.018;11.560;2023-08-06T09:00:03;20.30;70.30
13458;DHT22;6801;53.018;11.560;2023-08-06T09:02:33;20.30;70.20
13458;DHT22;6801;53.018;11.560;2023-08-06T09:05:01;20.30;70.20
13458;DHT22;6801;53.018;11.560;2023-08-06T09:07:33;20.40;70.10
13458;DHT22;6801;53.018;11.560;2023-08-06T09:10:03;20.40;70.00
13458;DHT22;6801;53.018;11.560;2023-08-06T09:12:30;20.40;70.20
13458;DHT22;6801;53.018;11.560;2023-08-06T09:14:58;20.40;70.20
13458;DHT22;6801;53.018;11.560;2023-08-06T09:17:25;20.40;70.10
13458;DHT22;6801;53.018;11.560;2023-08-06T09:19:55;20.50;70.00
13458;DHT22;6801;53.018;11.560;2023-08-06T09:22:23;20.50;70.00
13458;DHT22;6801;53.018;11.560;2023-08-06T09:24:50;20.50;70.00
13458;DHT22;6801;53.018;11.560;2023-08-06T09:27:17;20.50;70.20
13458;DHT22;6801;53.018;11.560;2023-08-06T09:29:45;20.50;70.30
13458;DHT22;6801;53.018;11.560;2023-08-06T09:32:12;20.50;70.20
13458;DHT22;6801;53.018;11.560;2023-08-06T09:34:41;20.50;70.20
13458;DHT22;6801;53.018;11.560;2023-08-06T09:37:10;20.60;70.10
13458;DHT22;6801;53.018;11.560;2023-08-06T09:39:38;20.60;69.90
13458;DHT22;6801;53.018;11.560;2023-08-06T09:42:06;20.60;69.90
13458;DHT22;6801;53.018;11.560;2023-08-06T09:44:33;20.60;69.80
13458;DHT22;6801;53.018;11.560;2023-08-06T09:47:02;20.60;69.80
13458;DHT22;6801;53.018;11.560;2023-08-06T09:49:40;20.70;69.80
13458;DHT22;6801;53.018;11.560;2023-08-06T09:52:11;20.70;69.80
13458;DHT22;6801;53.018;11.560;2023-08-06T09:54:38;20.80;69.80
13458;DHT22;6801;53.018;11.560;2023-08-06T09:57:06;20.80;69.80
13458;DHT22;6801;53.018;11.560;2023-08-06T09:59:33;20.80;69.90
13458;DHT22;6801;53.018;11.560;2023-08-06T10:02:03;20.90;69.80
13458;DHT22;6801;53.018;11.560;2023-08-06T10:04:33;20.90;69.70
13458;DHT22;6801;53.018;11.560;2023-08-06T10:07:00;20.90;69.50
13458;DHT22;6801;53.018;11.560;2023-08-06T10:09:29;21.00;69.60
13458;DHT22;6801;53.018;11.560;2023-08-06T10:11:57;21.00;69.60
13458;DHT22;6801;53.018;11.560;2023-08-06T10:14:28;21.10;69.60
13458;DHT22;6801;53.018;11.560;2023-08-06T10:16:57;21.10;69.60
13458;DHT22;6801;53.018;11.560;2023-08-06T10:19:25;21.20;69.60
13458;DHT22;6801;53.018;11.560;2023-08-06T10:22:09;21.20;69.50
13458;DHT22;6801;53.018;11.560;2023-08-06T10:24:49;21.30;69.50
13458;DHT22;6801;53.018;11.560;2023-08-06T10:27:27;21.30;69.40
13458;DHT22;6801;53.018;11.560;2023-08-06T10:29:54;21.40;69.20
13458;DHT22;6801;53.018;11.560;2023-08-06T10:32:22;21.50;69.10
13458;DHT22;6801;53.018;11.560;2023-08-06T10:35:28;21.50;69.10
13458;DHT22;6801;53.018;11.560;2023-08-06T10:38:04;21.50;68.90
13458;DHT22;6801;53.018;11.560;2023-08-06T10:40:33;21.60;68.70
13458;DHT22;6801;53.018;11.560;2023-08-06T10:43:01;21.70;68.60
13458;DHT22;6801;53.018;11.560;2023-08-06T10:45:28;21.70;68.30
13458;DHT22;6801;53.018;11.560;2023-08-06T10:47:56;21.80;68.20
13458;DHT22;6801;53.018;11.560;2023-08-06T10:50:24;21.80;68.20
13458;DHT22;6801;53.018;11.560;2023-08-06T10:52:52;21.80;68.10
13458;DHT22;6801;53.018;11.560;2023-08-06T10:55:23;21.90;68.00
13458;DHT22;6801;53.018;11.560;2023-08-06T10:57:52;21.90;67.60
13458;DHT22;6801;53.018;11.560;2023-08-06T11:00:21;21.90;67.60
13458;DHT22;6801;53.018;11.560;2023-08-06T11:02:49;21.90;67.60
13458;DHT22;6801;53.018;11.560;2023-08-06T11:05:16;21.90;67.50
13458;DHT22;6801;53.018;11.560;2023-08-06T11:07:44;21.90;67.60
13458;DHT22;6801;53.018;11.560;2023-08-06T11:10:12;21.90;67.50
13458;DHT22;6801;53.018;11.560;2023-08-06T11:12:40;21.90;67.40
13458;DHT22;6801;53.018;11.560;2023-08-06T11:15:09;21.90;67.20
13458;DHT22;6801;53.018;11.560;2023-08-06T11:17:37;21.90;67.30
13458;DHT22;6801;53.018;11.560;2023-08-06T11:20:06;21.90;67.30
13458;DHT22;6801;53.018;11.560;2023-08-06T11:22:33;22.00;67.30
13458;DHT22;6801;53.018;11.560;2023-08-06T11:25:02;22.00;67.30
13458;DHT22;6801;53.018;11.560;2023-08-06T11:27:29;22.00;67.30
13458;DHT22;6801;53.018;11.560;2023-08-06T11:29:56;22.00;67.40
13458;DHT22;6801;53.018;11.560;2023-08-06T11:32:25;22.00;67.40
13458;DHT22;6801;53.018;11.560;2023-08-06T11:34:53;22.00;67.30
13458;DHT22;6801;53.018;11.560;2023-08-06T11:37:21;22.10;67.10
13458;DHT22;6801;53.018;11.560;2023-08-06T11:39:50;22.10;67.20
13458;DHT22;6801;53.018;11.560;2023-08-06T11:42:17;22.10;66.90
13458;DHT22;6801;53.018;11.560;2023-08-06T11:44:44;22.20;66.70
13458;DHT22;6801;53.018;11.560;2023-08-06T11:47:13;22.10;66.60
13458;DHT22;6801;53.018;11.560;2023-08-06T11:49:44;22.10;66.70
13458;DHT22;6801;53.018;11.560;2023-08-06T11:52:15;22.20;66.80
13458;DHT22;6801;53.018;11.560;2023-08-06T11:54:44;22.20;66.80
13458;DHT22;6801;53.018;11.560;2023-08-06T11:57:11;22.20;66.90
13458;DHT22;6801;53.018;11.560;2023-08-06T11:59:39;22.20;66.80
13458;DHT22;6801;53.018;11.560;2023-08-06T12:02:08;22.20;66.70
13458;DHT22;6801;53.018;11.560;2023-08-06T12:05:00;22.20;66.70
13458;DHT22;6801;53.018;11.560;2023-08-06T12:07:29;22.20;66.90
13458;DHT22;6801;53.018;11.560;2023-08-06T12:09:57;22.10;66.70
13458;DHT22;6801;53.018;11.560;2023-08-06T12:12:24;22.10;66.80
13458;DHT22;6801;53.018;11.560;2023-08-06T12:14:51;22.10;66.80
13458;DHT22;6801;53.018;11.560;2023-08-06T12:17:18;22.10;66.90
13458;DHT22;6801;53.018;11.560;2023-08-06T12:19:45;22.00;66.90
13458;DHT22;6801;53.018;11.560;2023-08-06T12:22:14;22.10;67.00
13458;DHT22;6801;53.018;11.560;2023-08-06T12:24:42;22.10;66.70
13458;DHT22;6801;53.018;11.560;2023-08-06T12:27:09;22.10;66.80
13458;DHT22;6801;53.018;11.560;2023-08-06T12:29:37;22.00;66.90
13458;DHT22;6801;53.018;11.560;2023-08-06T12:32:04;22.00;66.80
13458;DHT22;6801;53.018;11.560;2023-08-06T12:34:31;22.00;66.90
13458;DHT22;6801;53.018;11.560;2023-08-06T12:36:59;22.00;66.60
13458;DHT22;6801;53.018;11.560;2023-08-06T12:39:27;22.00;66.70
13458;DHT22;6801;53.018;11.560;2023-08-06T12:41:54;22.00;66.60
13458;DHT22;6801;53.018;11.560;2023-08-06T12:44:23;22.00;66.50
13458;DHT22;6801;53.018;11.560;2023-08-06T12:46:50;21.90;66.60
13458;DHT22;6801;53.018;11.560;2023-08-06T12:49:17;21.90;66.60
13458;DHT22;6801;53.018;11.560;2023-08-06T12:51:46;21.90;66.70
13458;DHT22;6801;53.018;11.560;2023-08-06T12:54:13;21.80;67.10
13458;DHT22;6801;53.018;11.560;2023-08-06T12:56:42;21.80;67.40
13458;DHT22;6801;53.018;11.560;2023-08-06T12:59:09;21.70;67.30
13458;DHT22;6801;53.018;11.560;2023-08-06T13:01:37;21.70;67.70
13458;DHT22;6801;53.018;11.560;2023-08-06T13:04:04;21.70;67.90
13458;DHT22;6801;53.018;11.560;2023-08-06T13:06:31;21.70;67.80
13458;DHT22;6801;53.018;11.560;2023-08-06T13:09:02;21.60;67.60
13458;DHT22;6801;53.018;11.560;2023-08-06T13:11:30;21.60;67.60
13458;DHT22;6801;53.018;11.560;2023-08-06T13:14:03;21.60;67.70
13458;DHT22;6801;53.018;11.560;2023-08-06T13:16:31;21.60;67.60
13458;DHT22;6801;53.018;11.560;2023-08-06T13:18:58;21.60;67.60
13458;DHT22;6801;53.018;11.560;2023-08-06T13:21:34;21.60;67.80
13458;DHT22;6801;53.018;11.560;2023-08-06T13:24:02;21.60;67.90
13458;DHT22;6801;53.018;11.560;2023-08-06T13:26:30;21.50;68.30
13458;DHT22;6801;53.018;11.560;2023-08-06T13:28:58;21.50;68.50
13458;DHT22;6801;53.018;11.560;2023-08-06T13:31:26;21.50;68.60
13458;DHT22;6801;53.018;11.560;2023-08-06T13:33:54;21.50;68.60
13458;DHT22;6801;53.018;11.560;2023-08-06T13:36:21;21.50;68.80
13458;DHT22;6801;53.018;11.560;2023-08-06T13:38:48;21.50;69.10
13458;DHT22;6801;53.018;11.560;2023-08-06T13:41:16;21.50;69.30
13458;DHT22;6801;53.018;11.560;2023-08-06T13:43:43;21.50;69.00
13458;DHT22;6801;53.018;11.560;2023-08-06T13:46:12;21.50;68.80
13458;DHT22;6801;53.018;11.560;2023-08-06T13:48:42;21.50;68.80
13458;DHT22;6801;53.018;11.560;2023-08-06T13:51:09;21.50;68.70
13458;DHT22;6801;53.018;11.560;2023-08-06T13:53:36;21.50;68.70
13458;DHT22;6801;53.018;11.560;2023-08-06T13:56:04;21.50;68.50
13458;DHT22;6801;53.018;11.560;2023-08-06T13:58:31;21.50;68.50
13458;DHT22;6801;53.018;11.560;2023-08-06T14:00:58;21.50;68.50
13458;DHT22;6801;53.018;11.560;2023-08-06T14:03:27;21.60;68.50
13458;DHT22;6801;53.018;11.560;2023-08-06T14:05:54;21.60;68.50
13458;DHT22;6801;53.018;11.560;2023-08-06T14:08:22;21.50;68.40
13458;DHT22;6801;53.018;11.560;2023-08-06T14:10:49;21.60;68.40
13458;DHT22;6801;53.018;11.560;2023-08-06T14:13:16;21.60;68.40
13458;DHT22;6801;53.018;11.560;2023-08-06T14:15:43;21.60;68.30
13458;DHT22;6801;53.018;11.560;2023-08-06T14:18:12;21.50;68.40
13458;DHT22;6801;53.018;11.560;2023-08-06T14:20:41;21.50;68.50
13458;DHT22;6801;53.018;11.560;2023-08-06T14:23:08;21.50;68.50
13458;DHT22;6801;53.018;11.560;2023-08-06T14:25:39;21.50;68.50
13458;DHT22;6801;53.018;11.560;2023-08-06T14:28:06;21.50;68.80
13458;DHT22;6801;53.018;11.560;2023-08-06T14:30:33;21.50;69.30
13458;DHT22;6801;53.018;11.560;2023-08-06T14:33:00;21.50;69.70
13458;DHT22;6801;53.018;11.560;2023-08-06T14:35:29;21.50;69.60
13458;DHT22;6801;53.018;11.560;2023-08-06T14:37:57;21.50;69.50
13458;DHT22;6801;53.018;11.560;2023-08-06T14:40:24;21.40;69.90
13458;DHT22;6801;53.018;11.560;2023-08-06T14:42:54;21.40;70.00
13458;DHT22;6801;53.018;11.560;2023-08-06T14:45:21;21.40;69.80
13458;DHT22;6801;53.018;11.560;2023-08-06T14:47:48;21.40;70.00
13458;DHT22;6801;53.018;11.560;2023-08-06T14:50:16;21.40;70.10
13458;DHT22;6801;53.018;11.560;2023-08-06T14:52:43;21.30;70.20
13458;DHT22;6801;53.018;11.560;2023-08-06T14:55:17;21.30;70.30
13458;DHT22;6801;53.018;11.560;2023-08-06T14:57:50;21.30;70.40
13458;DHT22;6801;53.018;11.560;2023-08-06T15:00:17;21.20;70.50
13458;DHT22;6801;53.018;11.560;2023-08-06T15:02:44;21.20;70.60
13458;DHT22;6801;53.018;11.560;2023-08-06T15:05:12;21.20;70.60
13458;DHT22;6801;53.018;11.560;2023-08-06T15:07:39;21.20;70.70
13458;DHT22;6801;53.018;11.560;2023-08-06T15:10:07;21.20;70.80
13458;DHT22;6801;53.018;11.560;2023-08-06T15:12:36;21.10;70.90
13458;DHT22;6801;53.018;11.560;2023-08-06T15:15:07;21.10;71.00
13458;DHT22;6801;53.018;11.560;2023-08-06T15:17:34;21.10;71.10
13458;DHT22;6801;53.018;11.560;2023-08-06T15:20:01;21.10;71.10
13458;DHT22;6801;53.018;11.560;2023-08-06T15:22:29;21.10;71.10
13458;DHT22;6801;53.018;11.560;2023-08-06T15:24:57;21.10;71.10
13458;DHT22;6801;53.018;11.560;2023-08-06T15:27:25;21.10;71.00
13458;DHT22;6801;53.018;11.560;2023-08-06T15:29:53;21.10;71.10
13458;DHT22;6801;53.018;11.560;2023-08-06T15:32:20;21.10;71.20
13458;DHT22;6801;53.018;11.560;2023-08-06T15:34:49;21.10;71.20
13458;DHT22;6801;53.018;11.560;2023-08-06T15:37:17;21.10;71.20